Time;durP1;ratioP1;P1;durP2;ratioP2;P2;SDS_P1;SDS_P2;PMS_P1;PMS_P2;Temp;Humidity;BMP_temperature;BMP_pressure;BME280_temperature;BME280_humidity;BME280_pressure;Samples;Min_cycle;Max_cycle;Signal;HPM_P1;HPM_P2
2021/10/07 00:02:18;;;;;;;2.10;1.13;;;;;;;8.66;100.00;96543.63;5051047;28;24434;-79
2021/10/07 00:04:44;;;;;;;4.50;1.40;;;;;;;8.57;100.00;96549.19;5050946;28;20851;-79
2021/10/07 00:07:12;;;;;;;3.67;1.48;;;;;;;8.68;100.00;96549.59;5050434;28;21288;-79
2021/10/07 00:09:39;;;;;;;3.10;1.13;;;;;;;8.50;100.00;96547.78;5051624;28;20767;-78
2021/10/07 00:12:06;;;;;;;3.00;1.02;;;;;;;8.53;100.00;96552.81;5051194;28;20846;-79
2021/10/07 00:14:32;;;;;;;3.55;1.20;;;;;;;8.60;100.00;96548.22;5051119;28;20758;-79
2021/10/07 00:16:59;;;;;;;2.53;1.15;;;;;;;8.64;100.00;96552.34;5050884;28;24431;-78
2021/10/07 00:19:27;;;;;;;2.17;1.33;;;;;;;8.62;100.00;96542.09;5050429;28;24419;-79
2021/10/07 00:21:53;;;;;;;3.78;1.30;;;;;;;8.68;100.00;96551.34;5050771;28;21307;-79
2021/10/07 00:24:20;;;;;;;1.40;0.90;;;;;;;8.69;100.00;96559.00;5050717;28;24496;-79
2021/10/07 00:26:48;;;;;;;1.40;0.85;;;;;;;8.71;100.00;96556.34;5050561;28;24430;-78
2021/10/07 00:29:31;;;;;;;1.83;1.00;;;;;;;8.68;100.00;96553.91;5051090;28;20803;-78
2021/10/07 00:32:01;;;;;;;2.33;1.25;;;;;;;8.75;100.00;96554.47;5050858;28;20748;-78
2021/10/07 00:34:36;;;;;;;1.67;1.05;;;;;;;8.71;100.00;96548.59;5050295;28;20792;-78
2021/10/07 00:37:08;;;;;;;1.83;1.13;;;;;;;8.73;100.00;96550.22;5050775;28;20657;-79
2021/10/07 00:39:34;;;;;;;2.35;1.10;;;;;;;8.71;100.00;96556.34;5051663;28;20725;-79
2021/10/07 00:42:00;;;;;;;2.30;1.02;;;;;;;8.76;100.00;96562.16;5053166;28;24447;-79
2021/10/07 00:44:30;;;;;;;1.73;1.10;;;;;;;8.74;100.00;96558.78;5052052;28;25050;-76
2021/10/07 00:46:59;;;;;;;1.30;0.85;;;;;;;8.72;100.00;96561.47;5052549;28;21132;-78
2021/10/07 00:49:27;;;;;;;1.50;0.90;;;;;;;8.79;100.00;96564.63;5052791;28;20854;-78
2021/10/07 00:51:57;;;;;;;1.98;1.30;;;;;;;8.81;100.00;96561.97;5052788;28;20827;-78
2021/10/07 00:54:25;;;;;;;1.73;0.93;;;;;;;8.80;100.00;96566.28;5052180;28;20713;-77
2021/10/07 00:56:52;;;;;;;1.90;1.10;;;;;;;8.80;100.00;96558.53;5052859;28;20845;-79
2021/10/07 00:59:19;;;;;;;3.33;1.17;;;;;;;8.87;100.00;96559.13;5052531;28;20755;-79
2021/10/07 01:01:45;;;;;;;1.80;1.05;;;;;;;8.85;100.00;96559.16;5052132;28;25017;-78
2021/10/07 01:04:12;;;;;;;2.63;1.20;;;;;;;8.86;100.00;96552.25;5052483;28;24821;-78
2021/10/07 01:06:42;;;;;;;1.60;0.88;;;;;;;8.79;100.00;96561.19;5052449;28;20778;-78
2021/10/07 01:09:10;;;;;;;1.48;1.00;;;;;;;8.58;100.00;96565.53;5052513;28;24435;-78
2021/10/07 01:11:36;;;;;;;2.92;1.20;;;;;;;8.41;100.00;96561.06;5052227;28;20792;-78
2021/10/07 01:14:03;;;;;;;2.15;1.13;;;;;;;8.37;100.00;96556.91;5052016;28;24407;-79
2021/10/07 01:16:30;;;;;;;1.80;1.00;;;;;;;8.30;100.00;96564.03;5052095;28;20774;-80
2021/10/07 01:18:56;;;;;;;2.90;1.00;;;;;;;8.34;100.00;96552.69;5052568;28;20808;-78
2021/10/07 01:21:25;;;;;;;1.20;0.80;;;;;;;8.29;100.00;96557.22;5052415;28;20759;-79
2021/10/07 01:23:52;;;;;;;2.40;1.20;;;;;;;8.29;100.00;96561.53;5052766;28;21168;-78
2021/10/07 01:26:20;;;;;;;1.50;1.02;;;;;;;8.36;100.00;96563.81;5052197;28;20770;-77
2021/10/07 01:28:49;;;;;;;2.25;1.00;;;;;;;8.33;100.00;96566.50;5052217;28;20762;-79
2021/10/07 01:31:16;;;;;;;1.88;1.05;;;;;;;8.45;100.00;96562.59;5053358;28;20758;-78
2021/10/07 01:33:43;;;;;;;1.47;0.90;;;;;;;8.47;100.00;96571.13;5056582;28;20755;-78
2021/10/07 01:36:09;;;;;;;2.25;1.00;;;;;;;8.50;100.00;96570.19;5055431;28;25018;-78
2021/10/07 01:38:37;;;;;;;2.58;1.10;;;;;;;8.50;100.00;96565.84;5055860;28;24424;-79
2021/10/07 01:41:04;;;;;;;1.70;0.90;;;;;;;8.60;100.00;96556.81;5056405;28;21151;-79
2021/10/07 01:43:30;;;;;;;3.22;1.00;;;;;;;8.46;100.00;96561.72;5056244;28;20786;-77
2021/10/07 01:45:57;;;;;;;3.67;1.20;;;;;;;8.38;100.00;96566.34;5057117;28;24498;-78
2021/10/07 01:48:23;;;;;;;1.53;0.80;;;;;;;8.43;100.00;96565.25;5057401;28;24793;-80
2021/10/07 01:50:50;;;;;;;3.17;1.10;;;;;;;8.41;100.00;96561.06;5056394;28;21141;-79
2021/10/07 01:53:16;;;;;;;1.05;0.82;;;;;;;8.32;100.00;96564.84;5055976;28;20762;-79
2021/10/07 01:55:44;;;;;;;2.65;1.00;;;;;;;8.37;100.00;96565.50;5054332;28;20781;-77
2021/10/07 01:58:11;;;;;;;1.67;0.90;;;;;;;8.27;100.00;96564.19;5054666;28;21125;-79
2021/10/07 02:00:37;;;;;;;1.45;0.80;;;;;;;8.27;100.00;96558.16;5054438;28;21301;-78
2021/10/07 02:03:03;;;;;;;2.33;1.13;;;;;;;8.32;100.00;96557.09;5054524;28;24423;-78
2021/10/07 02:05:30;;;;;;;1.77;0.82;;;;;;;8.28;100.00;96557.28;5054215;28;24972;-79
2021/10/07 02:07:56;;;;;;;1.33;0.80;;;;;;;8.18;100.00;96554.22;5054252;28;21353;-79
2021/10/07 02:10:23;;;;;;;2.83;0.90;;;;;;;8.07;100.00;96557.25;5054296;28;24422;-79
2021/10/07 02:12:52;;;;;;;2.10;1.00;;;;;;;7.97;100.00;96554.22;5054663;28;24423;-78
2021/10/07 02:15:19;;;;;;;1.20;0.90;;;;;;;8.00;100.00;96554.06;5054475;28;20849;-78
2021/10/07 02:17:45;;;;;;;2.65;0.90;;;;;;;8.10;100.00;96561.44;5054802;28;24817;-79
2021/10/07 02:20:13;;;;;;;1.70;0.93;;;;;;;8.02;100.00;96555.78;5054786;28;24419;-79
2021/10/07 02:22:40;;;;;;;2.13;1.00;;;;;;;8.06;100.00;96560.72;5054486;28;24852;-79
2021/10/07 02:25:08;;;;;;;2.30;1.20;;;;;;;8.02;100.00;96558.34;5054212;28;24451;-78
2021/10/07 02:27:35;;;;;;;4.10;3.47;;;;;;;7.96;100.00;96560.25;5054603;28;24836;-78
2021/10/07 02:30:06;;;;;;;3.72;1.98;;;;;;;7.91;100.00;96564.75;5054024;28;24464;-79
2021/10/07 02:32:33;;;;;;;2.80;1.42;;;;;;;7.95;100.00;96566.31;5054367;28;24980;-78
2021/10/07 02:34:59;;;;;;;2.15;0.95;;;;;;;8.06;100.00;96567.63;5054459;28;24832;-79
2021/10/07 02:37:25;;;;;;;1.55;0.80;;;;;;;8.17;100.00;96571.47;5054222;28;24956;-79
2021/10/07 02:39:52;;;;;;;1.52;1.05;;;;;;;8.14;100.00;96569.00;5054254;28;25026;-78
2021/10/07 02:42:18;;;;;;;2.92;1.00;;;;;;;8.21;100.00;96579.91;5053960;28;24824;-78
2021/10/07 02:44:45;;;;;;;1.25;0.70;;;;;;;8.19;100.00;96581.72;5054242;28;24991;-78
2021/10/07 02:47:12;;;;;;;3.05;0.88;;;;;;;8.28;100.00;96586.50;5054561;28;24426;-78
2021/10/07 02:49:39;;;;;;;1.40;0.65;;;;;;;8.30;100.00;96576.94;5054710;28;24423;-78
2021/10/07 02:52:06;;;;;;;1.77;0.85;;;;;;;8.36;100.00;96589.63;5054017;28;24478;-77
2021/10/07 02:54:32;;;;;;;2.38;0.85;;;;;;;8.32;100.00;96582.06;5054376;28;24964;-78
2021/10/07 02:56:59;;;;;;;1.93;0.97;;;;;;;8.24;100.00;96580.63;5054214;28;24998;-78
2021/10/07 02:59:25;;;;;;;1.98;1.05;;;;;;;8.24;100.00;96585.78;5054416;28;20755;-78
2021/10/07 03:01:52;;;;;;;1.20;0.75;;;;;;;8.27;100.00;96584.84;5054173;28;24458;-78
2021/10/07 03:04:20;;;;;;;2.72;1.05;;;;;;;8.12;100.00;96575.13;5055256;28;20833;-78
2021/10/07 03:06:46;;;;;;;1.90;0.93;;;;;;;8.10;100.00;96577.75;5055395;28;20855;-78
2021/10/07 03:09:12;;;;;;;1.35;0.80;;;;;;;8.04;100.00;96572.00;5056064;28;20805;-78
2021/10/07 03:11:39;;;;;;;1.48;0.95;;;;;;;8.07;100.00;96575.31;5055656;28;21067;-78
2021/10/07 03:14:05;;;;;;;3.40;1.05;;;;;;;7.94;100.00;96582.69;5055446;28;24418;-78
2021/10/07 03:16:33;;;;;;;0.85;0.63;;;;;;;8.06;100.00;96580.53;5055169;28;24435;-78
2021/10/07 03:19:00;;;;;;;2.42;0.85;;;;;;;8.12;100.00;96586.31;5055668;28;24828;-78
2021/10/07 03:21:27;;;;;;;4.20;1.20;;;;;;;8.11;100.00;96581.19;5055613;28;24489;-78
2021/10/07 03:23:54;;;;;;;2.00;0.95;;;;;;;8.04;100.00;96583.16;5055726;28;24446;-78
2021/10/07 03:26:20;;;;;;;1.00;0.70;;;;;;;8.09;100.00;96581.25;5054381;28;24446;-78
2021/10/07 03:28:47;;;;;;;1.20;0.80;;;;;;;8.19;100.00;96589.44;5054558;28;24489;-78
2021/10/07 03:31:13;;;;;;;2.83;0.70;;;;;;;8.28;100.00;96594.25;5054881;28;24427;-78
2021/10/07 03:33:40;;;;;;;1.67;0.80;;;;;;;8.21;100.00;96585.91;5054200;28;24473;-78
2021/10/07 03:36:06;;;;;;;2.03;0.90;;;;;;;8.22;100.00;96590.16;5054547;28;24481;-78
2021/10/07 03:38:34;;;;;;;1.38;0.80;;;;;;;8.28;100.00;96585.69;5054771;28;24449;-78
2021/10/07 03:41:00;;;;;;;1.33;0.80;;;;;;;8.33;100.00;96588.91;5055016;28;24415;-78
2021/10/07 03:43:27;;;;;;;1.07;0.60;;;;;;;8.39;100.00;96586.94;5054946;28;24427;-78
2021/10/07 03:45:53;;;;;;;1.03;0.73;;;;;;;8.44;100.00;96589.31;5054597;28;24430;-78
2021/10/07 03:48:20;;;;;;;1.00;0.80;;;;;;;8.50;100.00;96599.41;5054941;28;20845;-78
2021/10/07 03:50:47;;;;;;;1.65;0.95;;;;;;;8.68;100.00;96601.22;5055187;28;20763;-78
2021/10/07 03:53:13;;;;;;;1.95;1.13;;;;;;;8.67;100.00;96603.84;5054266;28;24957;-78
2021/10/07 03:55:41;;;;;;;2.88;0.98;;;;;;;8.60;100.00;96610.19;5053169;28;24941;-78
2021/10/07 03:58:08;;;;;;;2.10;1.10;;;;;;;8.72;100.00;96612.28;5053845;28;24427;-78
2021/10/07 04:00:34;;;;;;;1.20;0.88;;;;;;;8.54;100.00;96610.44;5053916;28;24423;-79
2021/10/07 04:03:02;;;;;;;1.30;0.70;;;;;;;8.39;100.00;96620.50;5054012;28;24936;-78
2021/10/07 04:05:29;;;;;;;1.80;1.20;;;;;;;8.46;100.00;96618.50;5054333;28;24458;-78
2021/10/07 04:07:55;;;;;;;2.20;1.05;;;;;;;8.08;100.00;96620.84;5054474;28;24840;-78
2021/10/07 04:10:22;;;;;;;1.95;0.75;;;;;;;8.11;100.00;96610.41;5054180;28;24431;-79
2021/10/07 04:12:50;;;;;;;1.15;0.90;;;;;;;8.17;100.00;96623.06;5054422;28;24411;-78
2021/10/07 04:15:16;;;;;;;2.67;0.90;;;;;;;8.23;100.00;96628.00;5052391;28;24427;-78
2021/10/07 04:17:43;;;;;;;1.38;1.00;;;;;;;8.29;100.00;96621.72;5053280;28;24443;-79
2021/10/07 04:20:10;;;;;;;1.60;0.95;;;;;;;8.40;100.00;96627.34;5053903;28;24420;-79
2021/10/07 04:22:36;;;;;;;1.55;1.00;;;;;;;8.38;100.00;96626.56;5053628;28;20770;-78
2021/10/07 04:25:03;;;;;;;1.13;0.80;;;;;;;8.38;100.00;96629.16;5053372;28;24868;-78
2021/10/07 04:27:31;;;;;;;1.30;0.90;;;;;;;8.41;100.00;96625.59;5054135;28;24427;-78
2021/10/07 04:29:59;;;;;;;4.75;2.55;;;;;;;8.37;100.00;96630.03;5053576;28;24469;-78
2021/10/07 04:32:25;;;;;;;5.65;3.45;;;;;;;8.41;100.00;96626.41;5053719;28;24435;-78
2021/10/07 04:34:52;;;;;;;10.20;5.28;;;;;;;8.39;100.00;96622.25;5053945;28;24415;-78
2021/10/07 04:37:18;;;;;;;5.97;3.45;;;;;;;8.34;100.00;96626.69;5053803;28;24492;-78
2021/10/07 04:39:45;;;;;;;2.38;1.70;;;;;;;8.28;100.00;96630.38;5053888;28;24430;-78
2021/10/07 04:42:11;;;;;;;2.47;1.52;;;;;;;8.06;100.00;96624.41;5034421;28;24506;-78
2021/10/07 04:44:38;;;;;;;2.15;1.10;;;;;;;7.95;100.00;96623.06;5033062;28;24494;-78
2021/10/07 04:47:06;;;;;;;3.00;1.23;;;;;;;7.89;100.00;96625.88;5034442;28;24949;-78
2021/10/07 04:49:32;;;;;;;1.02;0.90;;;;;;;7.90;100.00;96630.16;5038789;28;24470;-78
2021/10/07 04:51:59;;;;;;;1.30;0.90;;;;;;;7.69;100.00;96634.38;5038903;28;24815;-79
2021/10/07 04:54:25;;;;;;;2.20;1.13;;;;;;;7.74;100.00;96629.88;5035553;28;24938;-78
2021/10/07 04:56:52;;;;;;;1.38;0.90;;;;;;;7.66;100.00;96633.66;5034471;28;24416;-79
2021/10/07 04:59:18;;;;;;;2.53;0.90;;;;;;;7.81;100.00;96627.91;5034310;28;24964;-79
2021/10/07 05:01:45;;;;;;;1.52;1.02;;;;;;;7.79;100.00;96637.47;5033653;28;24424;-78
2021/10/07 05:04:12;;;;;;;1.90;1.10;;;;;;;7.90;100.00;96635.31;5033930;28;24459;-79
2021/10/07 05:06:39;;;;;;;1.42;1.00;;;;;;;7.97;100.00;96641.06;5038582;28;24439;-79
2021/10/07 05:09:05;;;;;;;1.58;1.15;;;;;;;8.08;100.00;96638.06;5039780;28;24424;-78
2021/10/07 05:11:32;;;;;;;1.42;0.82;;;;;;;8.04;100.00;96645.06;5039829;28;24424;-78
2021/10/07 05:13:59;;;;;;;1.00;0.70;;;;;;;8.09;100.00;96644.91;5040303;28;24428;-78
2021/10/07 05:16:25;;;;;;;1.38;0.95;;;;;;;7.99;100.00;96650.41;5039746;28;24436;-78
2021/10/07 05:18:52;;;;;;;1.20;0.90;;;;;;;7.98;100.00;96650.50;5039142;28;24419;-78
2021/10/07 05:21:19;;;;;;;2.07;0.93;;;;;;;8.12;100.00;96665.41;5038602;28;24794;-77
2021/10/07 05:23:46;;;;;;;1.95;0.98;;;;;;;8.13;100.00;96669.69;5037059;28;24806;-74
2021/10/07 05:26:12;;;;;;;1.52;1.02;;;;;;;8.04;100.00;96670.03;5037420;28;24443;-78
2021/10/07 05:28:42;;;;;;;1.10;0.90;;;;;;;8.34;100.00;96671.41;5038665;28;24454;-78
2021/10/07 05:31:08;;;;;;;1.40;0.85;;;;;;;8.17;100.00;96674.69;5038937;28;24481;-78
2021/10/07 05:33:35;;;;;;;1.80;0.90;;;;;;;8.06;100.00;96676.00;5039108;28;24485;-78
2021/10/07 05:36:01;;;;;;;3.28;0.90;;;;;;;8.12;100.00;96674.03;5038394;28;24933;-78
2021/10/07 05:38:29;;;;;;;1.80;1.23;;;;;;;8.06;100.00;96676.00;5038707;28;24485;-78
2021/10/07 05:40:55;;;;;;;4.03;1.35;;;;;;;8.23;100.00;96682.19;5038709;28;24858;-78
2021/10/07 05:43:22;;;;;;;1.48;1.13;;;;;;;8.42;100.00;96681.50;5038869;28;24485;-78
2021/10/07 05:45:49;;;;;;;1.85;1.52;;;;;;;8.16;100.00;96682.50;5038209;28;24563;-78
2021/10/07 05:48:15;;;;;;;2.20;1.80;;;;;;;8.00;100.00;96685.63;5038417;28;24785;-78
2021/10/07 05:50:42;;;;;;;2.40;1.55;;;;;;;7.88;100.00;96680.94;5038467;28;24837;-78
2021/10/07 05:53:08;;;;;;;1.65;1.40;;;;;;;7.86;100.00;96682.75;5038683;28;24422;-78
2021/10/07 05:55:36;;;;;;;2.63;1.50;;;;;;;7.98;100.00;96681.44;5038270;28;24438;-78
2021/10/07 05:58:02;;;;;;;2.07;1.57;;;;;;;7.99;100.00;96688.28;5038313;28;24420;-78
2021/10/07 06:00:29;;;;;;;3.87;1.57;;;;;;;8.04;100.00;96682.94;5038425;28;24501;-78
2021/10/07 06:02:56;;;;;;;2.63;1.53;;;;;;;8.34;100.00;96693.81;5038283;28;24424;-79
2021/10/07 06:05:22;;;;;;;2.15;1.40;;;;;;;8.27;100.00;96700.09;5038947;28;24498;-78
2021/10/07 06:07:48;;;;;;;3.20;1.73;;;;;;;8.21;100.00;96693.47;5038839;28;24443;-79
2021/10/07 06:10:15;;;;;;;2.13;1.33;;;;;;;8.24;100.00;96699.34;5039604;28;24427;-78
2021/10/07 06:12:44;;;;;;;1.42;0.95;;;;;;;8.26;100.00;96704.44;5039173;28;24439;-79
2021/10/07 06:15:11;;;;;;;2.50;1.45;;;;;;;8.40;100.00;96699.59;5036874;28;24451;-78
2021/10/07 06:17:38;;;;;;;3.17;1.65;;;;;;;8.32;100.00;96698.22;5036387;28;24427;-76
2021/10/07 06:20:16;;;;;;;3.03;1.90;;;;;;;8.26;100.00;96704.44;5033271;28;24408;-76
2021/10/07 06:22:43;;;;;;;4.50;1.85;;;;;;;8.38;100.00;96708.31;5033914;28;24427;-78
2021/10/07 06:25:09;;;;;;;4.00;2.10;;;;;;;8.62;100.00;96709.94;5035714;28;24452;-79
2021/10/07 06:27:36;;;;;;;3.33;2.00;;;;;;;8.58;100.00;96708.38;5034996;28;24435;-78
2021/10/07 06:30:04;;;;;;;5.18;2.15;;;;;;;8.42;100.00;96708.16;5033835;28;24954;-79
2021/10/07 06:32:31;;;;;;;3.28;1.85;;;;;;;8.65;100.00;96706.41;5035954;28;24443;-79
2021/10/07 06:34:57;;;;;;;3.97;2.30;;;;;;;8.69;100.00;96713.94;5034028;28;24432;-76
2021/10/07 06:37:23;;;;;;;2.85;2.10;;;;;;;8.53;100.00;96715.47;5033531;28;24961;-77
2021/10/07 06:39:50;;;;;;;4.50;2.13;;;;;;;8.45;100.00;96717.50;5035054;28;24434;-79
2021/10/07 06:42:16;;;;;;;4.10;2.10;;;;;;;8.44;100.00;96718.41;5035449;28;24950;-79
2021/10/07 06:44:43;;;;;;;1.67;1.57;;;;;;;8.48;100.00;96723.38;5035815;28;24950;-78
2021/10/07 06:47:11;;;;;;;3.13;2.17;;;;;;;8.55;100.00;96726.56;5035032;28;24444;-77
2021/10/07 06:49:37;;;;;;;4.35;2.72;;;;;;;8.53;100.00;96727.50;5034987;28;24420;-79
2021/10/07 06:52:04;;;;;;;8.25;3.53;;;;;;;8.48;100.00;96736.28;5035215;28;24443;-78
2021/10/07 06:54:30;;;;;;;4.03;3.58;;;;;;;8.38;100.00;96732.41;5035743;28;24424;-79
2021/10/07 06:56:57;;;;;;;5.03;3.70;;;;;;;8.37;100.00;96732.41;5036512;28;25031;-79
2021/10/07 06:59:23;;;;;;;3.38;3.05;;;;;;;8.39;100.00;96730.66;5036231;28;24834;-78
2021/10/07 07:01:50;;;;;;;4.13;3.17;;;;;;;8.44;100.00;96736.47;5034454;28;24531;-72
2021/10/07 07:04:17;;;;;;;10.35;3.20;;;;;;;8.48;100.00;96743.19;5033356;28;24427;-78
2021/10/07 07:06:45;;;;;;;5.43;3.50;;;;;;;8.56;100.00;96753.22;5033392;28;24514;-77
2021/10/07 07:09:12;;;;;;;4.40;2.95;;;;;;;8.60;100.00;96745.31;5033439;28;24471;-78
2021/10/07 07:11:39;;;;;;;4.13;3.00;;;;;;;8.48;100.00;96741.44;5033915;28;20822;-77
2021/10/07 07:14:06;;;;;;;4.83;2.80;;;;;;;8.58;100.00;96748.84;5033375;28;25029;-76
2021/10/07 07:16:33;;;;;;;4.65;2.67;;;;;;;8.62;100.00;96750.41;5032962;28;20773;-77
2021/10/07 07:19:00;;;;;;;5.90;3.50;;;;;;;8.49;100.00;96750.03;5033227;28;25005;-77
2021/10/07 07:21:30;;;;;;;3.80;2.77;;;;;;;8.53;100.00;96756.78;5033331;28;24485;-77
2021/10/07 07:23:58;;;;;;;8.88;2.63;;;;;;;8.53;100.00;96751.63;5033378;28;24638;-77
2021/10/07 07:26:25;;;;;;;4.60;2.20;;;;;;;8.66;100.00;96759.72;5032618;28;20789;-78
2021/10/07 07:28:52;;;;;;;7.90;3.15;;;;;;;8.63;100.00;96765.00;5032039;28;24424;-77
2021/10/07 07:31:18;;;;;;;7.85;3.10;;;;;;;8.59;100.00;96768.59;5032856;28;24416;-77
2021/10/07 07:33:46;;;;;;;7.45;2.80;;;;;;;8.56;100.00;96758.38;5032615;28;24980;-77
2021/10/07 07:36:13;;;;;;;5.65;3.05;;;;;;;8.71;100.00;96757.78;5032679;28;24886;-78
2021/10/07 07:38:40;;;;;;;5.57;3.13;;;;;;;8.82;100.00;96759.94;5033492;28;24428;-78
2021/10/07 07:41:07;;;;;;;6.32;3.25;;;;;;;8.81;100.00;96758.25;5035386;28;24478;-78
2021/10/07 07:43:33;;;;;;;3.28;2.60;;;;;;;8.93;100.00;96761.19;5035543;28;24423;-79
2021/10/07 07:46:00;;;;;;;5.03;3.10;;;;;;;8.98;100.00;96758.44;5035217;28;24451;-78
2021/10/07 07:48:26;;;;;;;6.18;3.22;;;;;;;9.01;100.00;96762.63;5035575;28;24463;-79
2021/10/07 07:50:53;;;;;;;3.97;2.63;;;;;;;8.98;100.00;96760.19;5035349;28;24833;-78
2021/10/07 07:53:19;;;;;;;4.75;3.08;;;;;;;9.08;100.00;96772.63;5038970;28;24422;-79
2021/10/07 07:55:47;;;;;;;3.65;2.95;;;;;;;9.13;100.00;96772.47;5039095;28;24968;-79
2021/10/07 07:58:14;;;;;;;4.33;3.33;;;;;;;9.28;100.00;96771.84;5035424;28;20815;-78
2021/10/07 08:00:41;;;;;;;6.47;2.92;;;;;;;9.25;100.00;96777.13;5034554;28;24937;-78
2021/10/07 08:03:07;;;;;;;4.10;2.80;;;;;;;9.25;100.00;96782.31;5034095;28;24442;-78
2021/10/07 08:05:34;;;;;;;5.10;3.28;;;;;;;9.31;100.00;96782.06;5034170;28;20792;-78
2021/10/07 08:08:00;;;;;;;4.38;2.80;;;;;;;9.41;100.00;96783.34;5033888;28;20780;-79
2021/10/07 08:10:27;;;;;;;4.85;2.85;;;;;;;9.50;100.00;96786.47;5033805;28;21487;-78
2021/10/07 08:12:55;;;;;;;3.03;2.60;;;;;;;9.57;100.00;96788.72;5033244;28;20829;-78
2021/10/07 08:15:22;;;;;;;3.92;2.78;;;;;;;9.72;100.00;96784.63;5034646;28;20815;-78
2021/10/07 08:17:48;;;;;;;5.28;2.95;;;;;;;10.05;100.00;96786.63;5033924;28;24486;-79
2021/10/07 08:20:16;;;;;;;5.32;3.15;;;;;;;10.05;100.00;96778.88;5035071;28;20837;-78
2021/10/07 08:22:44;;;;;;;4.22;2.65;;;;;;;10.02;100.00;96779.88;5036533;28;20806;-78
2021/10/07 08:25:11;;;;;;;2.72;2.47;;;;;;;10.19;100.00;96779.09;5035048;28;20868;-78
2021/10/07 08:27:39;;;;;;;4.57;2.90;;;;;;;10.32;100.00;96780.25;5032683;28;24829;-77
2021/10/07 08:30:09;;;;;;;5.75;3.05;;;;;;;10.44;100.00;96790.97;5033152;28;20811;-77
2021/10/07 08:32:36;;;;;;;5.28;3.45;;;;;;;10.25;100.00;96791.81;5033429;28;20736;-77
2021/10/07 08:35:03;;;;;;;6.10;2.88;;;;;;;10.26;100.00;96795.22;5033274;28;20757;-77
2021/10/07 08:37:30;;;;;;;7.18;2.83;;;;;;;10.44;100.00;96796.16;5033355;28;25016;-77
2021/10/07 08:39:56;;;;;;;5.50;2.95;;;;;;;10.56;100.00;96800.75;5033681;28;24431;-77
2021/10/07 08:42:23;;;;;;;3.33;2.58;;;;;;;10.75;100.00;96805.91;5032799;28;24415;-78
2021/10/07 08:44:49;;;;;;;6.88;3.30;;;;;;;10.80;100.00;96815.16;5033360;28;24427;-78
2021/10/07 08:47:17;;;;;;;4.63;2.80;;;;;;;10.70;100.00;96806.13;5032906;28;24981;-77
2021/10/07 08:49:44;;;;;;;4.25;2.55;;;;;;;10.47;100.00;96806.38;5032542;28;24969;-78
2021/10/07 08:52:11;;;;;;;4.60;2.72;;;;;;;10.48;100.00;96813.22;5032956;28;20769;-77
2021/10/07 08:54:38;;;;;;;6.60;3.28;;;;;;;10.24;100.00;96808.22;5032467;28;24428;-78
2021/10/07 08:57:04;;;;;;;3.83;2.22;;;;;;;10.39;100.00;96807.56;5032440;28;24424;-78
2021/10/07 08:59:32;;;;;;;4.97;2.83;;;;;;;10.32;100.00;96805.31;5033575;28;20764;-77
2021/10/07 09:02:01;;;;;;;2.90;2.08;;;;;;;10.45;100.00;96800.41;5033377;28;24482;-77
2021/10/07 09:04:30;;;;;;;4.50;2.58;;;;;;;10.59;100.00;96803.22;5033351;28;24419;-78
2021/10/07 09:06:59;;;;;;;5.60;3.00;;;;;;;10.64;100.00;96803.81;5033345;28;24467;-77
2021/10/07 09:09:26;;;;;;;3.75;2.50;;;;;;;10.81;100.00;96801.28;5032921;28;24459;-77
2021/10/07 09:11:54;;;;;;;4.90;2.77;;;;;;;11.11;100.00;96798.16;5033162;28;24436;-77
2021/10/07 09:14:25;;;;;;;4.70;2.90;;;;;;;10.94;100.00;96798.09;5033230;28;24950;-78
2021/10/07 09:16:53;;;;;;;4.40;2.88;;;;;;;11.47;100.00;96800.69;5031944;28;25023;-77
2021/10/07 09:19:21;;;;;;;4.40;2.83;;;;;;;11.68;100.00;96796.19;5032251;28;24519;-77
2021/10/07 09:21:51;;;;;;;5.03;3.03;;;;;;;11.66;98.93;96797.16;5031605;28;24977;-78
2021/10/07 09:24:28;;;;;;;3.33;2.38;;;;;;;11.86;100.00;96792.69;5032116;28;24420;-78
2021/10/07 09:26:58;;;;;;;3.28;2.50;;;;;;;12.23;99.38;96793.31;5032010;28;24447;-78
2021/10/07 09:29:32;;;;;;;6.00;2.97;;;;;;;12.02;95.19;96787.53;5032024;28;24439;-78
2021/10/07 09:31:59;;;;;;;2.97;2.13;;;;;;;12.00;95.58;96783.31;5032556;28;24949;-78
2021/10/07 09:34:37;;;;;;;4.60;2.75;;;;;;;12.28;99.85;96787.91;5031424;28;24422;-78
2021/10/07 09:37:20;;;;;;;3.75;2.22;;;;;;;12.17;97.12;96801.47;5032051;28;24451;-77
2021/10/07 09:39:48;;;;;;;4.43;2.20;;;;;;;11.63;99.60;96798.16;5031622;28;24430;-78
2021/10/07 09:42:18;;;;;;;5.22;2.10;;;;;;;11.77;100.00;96798.28;5032350;28;24419;-78
2021/10/07 09:44:57;;;;;;;5.13;2.58;;;;;;;11.30;100.00;96795.50;5032305;28;24464;-78
2021/10/07 09:47:28;;;;;;;4.40;1.88;;;;;;;11.29;100.00;96799.84;5032237;28;24454;-77
2021/10/07 09:50:09;;;;;;;3.70;2.00;;;;;;;11.29;100.00;96802.44;5033049;28;24499;-78
2021/10/07 09:52:37;;;;;;;3.72;2.08;;;;;;;11.35;100.00;96798.72;5033951;28;24434;-77
2021/10/07 09:55:09;;;;;;;5.40;1.95;;;;;;;11.68;100.00;96800.50;5035737;28;24419;-77
2021/10/07 09:57:48;;;;;;;3.53;1.80;;;;;;;11.82;98.71;96801.47;5036107;28;24428;-78
2021/10/07 10:00:14;;;;;;;3.38;2.13;;;;;;;11.56;100.00;96800.22;5035723;28;24423;-77
2021/10/07 10:02:41;;;;;;;4.15;2.40;;;;;;;11.43;100.00;96806.94;5035188;28;24430;-79
2021/10/07 10:05:10;;;;;;;4.00;2.40;;;;;;;11.52;100.00;96803.03;5035764;28;24434;-79
2021/10/07 10:07:38;;;;;;;4.47;2.58;;;;;;;11.60;99.64;96804.31;5035333;28;24479;-79
2021/10/07 10:10:05;;;;;;;4.28;2.50;;;;;;;11.24;100.00;96807.00;5037794;28;24420;-78
2021/10/07 10:12:32;;;;;;;3.28;2.35;;;;;;;11.00;100.00;96805.59;5036561;28;25057;-79
2021/10/07 10:14:59;;;;;;;4.53;2.63;;;;;;;11.15;100.00;96804.84;5036581;28;24754;-79
2021/10/07 10:17:27;;;;;;;5.88;2.55;;;;;;;11.32;100.00;96811.81;5035865;28;24435;-78
2021/10/07 10:19:55;;;;;;;3.20;2.27;;;;;;;11.10;100.00;96799.91;5035078;28;24490;-77
2021/10/07 10:22:24;;;;;;;3.72;2.47;;;;;;;11.50;100.00;96802.31;5035539;28;24527;-78
2021/10/07 10:24:52;;;;;;;2.95;2.03;;;;;;;11.35;100.00;96807.31;5035579;28;24419;-79
2021/10/07 10:27:19;;;;;;;3.05;2.05;;;;;;;11.69;100.00;96800.44;5036116;28;20785;-78
2021/10/07 10:29:45;;;;;;;4.03;2.08;;;;;;;11.82;97.45;96803.25;5035217;28;24465;-78
2021/10/07 10:32:12;;;;;;;3.03;1.95;;;;;;;11.79;97.03;96806.84;5035058;28;24845;-78
2021/10/07 10:34:41;;;;;;;3.00;2.00;;;;;;;11.78;96.25;96799.97;5035479;28;24493;-78
2021/10/07 10:37:09;;;;;;;3.38;2.20;;;;;;;11.91;95.36;96808.00;5035037;28;20752;-78
2021/10/07 10:39:37;;;;;;;5.03;2.53;;;;;;;12.04;95.01;96808.19;5036064;28;20868;-77
2021/10/07 10:42:08;;;;;;;3.03;2.08;;;;;;;12.05;94.93;96802.09;5035811;28;24507;-78
2021/10/07 10:44:40;;;;;;;4.38;1.70;;;;;;;12.06;95.00;96809.81;5035216;28;24438;-79
2021/10/07 10:47:26;;;;;;;4.63;2.22;;;;;;;12.06;95.56;96809.81;5050257;28;20748;-78
2021/10/07 10:50:06;;;;;;;4.50;2.20;;;;;;;12.14;95.29;96809.41;5054827;28;20825;-78
2021/10/07 10:52:35;;;;;;;3.88;2.30;;;;;;;11.90;95.62;96805.47;5060134;28;20689;-77
2021/10/07 10:55:03;;;;;;;4.53;1.85;;;;;;;11.93;95.38;96811.34;5058368;28;20773;-78
2021/10/07 10:57:34;;;;;;;7.25;2.78;;;;;;;11.93;97.82;96810.50;5057714;28;24450;-78
2021/10/07 11:00:16;;;;;;;5.32;2.70;;;;;;;11.62;98.42;96812.06;5059120;28;24430;-77
2021/10/07 11:02:43;;;;;;;5.50;3.50;;;;;;;11.96;97.87;96815.56;5057533;28;20767;-78
2021/10/07 11:05:22;;;;;;;4.88;3.55;;;;;;;12.03;97.93;96811.72;5058453;28;24439;-78
2021/10/07 11:08:16;;;;;;;5.00;3.60;;;;;;;11.79;97.20;96814.66;5060749;28;20806;-77
2021/10/07 11:10:43;;;;;;;4.65;3.72;;;;;;;11.83;97.00;96805.81;5059501;28;20746;-78
2021/10/07 11:13:15;;;;;;;6.38;3.90;;;;;;;11.83;97.08;96810.13;5060282;28;20785;-78
2021/10/07 11:15:42;;;;;;;4.77;3.80;;;;;;;11.83;97.96;96811.00;5057687;28;20696;-78
2021/10/07 11:18:08;;;;;;;5.53;4.03;;;;;;;11.66;96.37;96803.19;5057239;28;20767;-77
2021/10/07 11:20:36;;;;;;;5.75;3.83;;;;;;;11.73;96.61;96806.31;5056724;28;24987;-78
2021/10/07 11:23:11;;;;;;;5.77;3.90;;;;;;;11.76;96.17;96814.78;5062937;28;24427;-78
2021/10/07 11:25:41;;;;;;;5.97;3.75;;;;;;;11.59;97.08;96810.44;5058817;28;24481;-77
2021/10/07 11:28:08;;;;;;;6.25;4.32;;;;;;;11.68;97.42;96811.75;5058456;28;20787;-77
2021/10/07 11:30:39;;;;;;;6.57;4.22;;;;;;;11.70;99.40;96822.88;5056662;28;20828;-77
2021/10/07 11:33:06;;;;;;;6.80;4.47;;;;;;;11.65;100.00;96816.25;5055059;28;21061;-77
2021/10/07 11:35:34;;;;;;;6.82;4.75;;;;;;;11.71;98.71;96816.75;5054018;28;20809;-77